Time;durP1;ratioP1;P1;durP2;ratioP2;P2;SDS_P1;SDS_P2;PMS_P1;PMS_P2;Temp;Humidity;BMP_temperature;BMP_pressure;BME280_temperature;BME280_humidity;BME280_pressure;Samples;Min_cycle;Max_cycle;Signal;HPM_P1;HPM_P2
2022/04/13 00:01:59;;;;;;;0.70;0.70;;;9.80;17.10;;;;;;5033752;28;20261;-75
2022/04/13 00:04:24;;;;;;;0.70;0.70;;;9.80;1.00;;;;;;5033925;28;20542;-74
2022/04/13 00:06:50;;;;;;;0.60;0.60;;;9.80;1.00;;;;;;5033453;28;20247;-74
2022/04/13 00:09:16;;;;;;;0.70;0.70;;;9.60;12.30;;;;;;5033240;28;20679;-76
2022/04/13 00:11:41;;;;;;;0.70;0.70;;;9.80;21.70;;;;;;5036706;28;20207;-74
2022/04/13 00:14:07;;;;;;;0.60;0.60;;;9.80;1.00;;;;;;5035979;28;20641;-74
2022/04/13 00:16:32;;;;;;;0.70;0.70;;;9.80;1.00;;;;;;5036924;28;20275;-74
2022/04/13 00:18:58;;;;;;;0.70;0.70;;;9.90;1.00;;;;;;5035281;28;20203;-74
2022/04/13 00:21:23;;;;;;;0.60;0.60;;;9.90;1.00;;;;;;5033164;28;20298;-74
2022/04/13 00:23:49;;;;;;;0.70;0.70;;;9.80;1.00;;;;;;5032949;28;20263;-75
2022/04/13 00:26:15;;;;;;;0.70;0.70;;;9.80;1.00;;;;;;5033020;28;20222;-74
2022/04/13 00:28:41;;;;;;;0.70;0.70;;;9.90;1.00;;;;;;5033040;28;20267;-74
2022/04/13 00:31:07;;;;;;;0.70;0.70;;;9.80;1.00;;;;;;5032084;28;20658;-75
2022/04/13 00:33:33;;;;;;;0.67;0.67;;;9.80;1.00;;;;;;5031914;28;20207;-74
2022/04/13 00:35:59;;;;;;;0.60;0.60;;;9.80;2.70;;;;;;5031698;28;20699;-74
2022/04/13 00:38:25;;;;;;;0.60;0.60;;;9.70;1.00;;;;;;5031515;28;20191;-75
2022/04/13 00:40:50;;;;;;;0.60;0.60;;;9.60;25.60;;;;;;5031278;28;20199;-75
2022/04/13 00:43:16;;;;;;;0.70;0.70;;;9.60;6.80;;;;;;5031238;28;20278;-75
2022/04/13 00:45:46;;;;;;;0.60;0.60;;;9.50;8.00;;;;;;5031660;28;20188;-74
2022/04/13 00:48:28;;;;;;;0.60;0.60;;;9.40;15.90;;;;;;5031442;28;20188;-74
2022/04/13 00:50:54;;;;;;;0.70;0.70;;;9.50;6.90;;;;;;5011222;28;20658;-74
2022/04/13 00:53:21;;;;;;;0.60;0.60;;;9.60;1.00;;;;;;5011760;28;20200;-75
2022/04/13 00:55:48;;;;;;;0.60;0.60;;;9.40;4.20;;;;;;5011784;28;20564;-74
2022/04/13 00:58:17;;;;;;;0.60;0.60;;;9.20;29.10;;;;;;5011728;28;20191;-74
2022/04/13 01:00:48;;;;;;;0.70;0.70;;;9.20;29.60;;;;;;5010700;28;20200;-74
2022/04/13 01:03:20;;;;;;;0.70;0.70;;;9.30;33.10;;;;;;5011724;28;20180;-74
2022/04/13 01:05:47;;;;;;;0.50;0.50;;;9.00;39.80;;;;;;5011750;28;20180;-74
2022/04/13 01:08:17;;;;;;;0.70;0.70;;;9.30;46.90;;;;;;5019404;28;20176;-74
2022/04/13 01:10:47;;;;;;;0.60;0.60;;;9.30;32.00;;;;;;5031160;28;20191;-75
2022/04/13 01:13:14;;;;;;;0.73;0.73;;;9.20;51.20;;;;;;5031115;28;20290;-74
2022/04/13 01:15:40;;;;;;;0.60;0.60;;;9.20;81.00;;;;;;5031320;28;20191;-74
2022/04/13 01:18:06;;;;;;;0.70;0.70;;;9.20;49.50;;;;;;5031046;28;20176;-74
2022/04/13 01:20:34;;;;;;;0.60;0.60;;;9.00;61.10;;;;;;5030623;28;20196;-75
2022/04/13 01:23:00;;;;;;;0.70;0.70;;;9.00;70.60;;;;;;5031341;28;20302;-75
2022/04/13 01:25:25;;;;;;;0.70;0.70;;;8.90;99.90;;;;;;5031277;28;20636;-74
2022/04/13 01:27:51;;;;;;;0.70;0.70;;;9.10;71.90;;;;;;5030829;28;20202;-74
2022/04/13 01:30:17;;;;;;;0.70;0.70;;;8.90;48.60;;;;;;5030455;28;20282;-74
2022/04/13 01:32:42;;;;;;;0.70;0.70;;;8.80;26.70;;;;;;4995682;28;1026132;-75
2022/04/13 01:35:08;;;;;;;0.70;0.70;;;8.90;25.60;;;;;;5031850;28;20192;-73
2022/04/13 01:37:34;;;;;;;0.70;0.70;;;8.90;33.10;;;;;;5032439;28;20182;-73
2022/04/13 01:40:00;;;;;;;0.60;0.60;;;8.90;29.70;;;;;;5031070;28;20604;-74
2022/04/13 01:42:25;;;;;;;0.60;0.60;;;8.90;65.60;;;;;;5031193;28;20230;-73
2022/04/13 01:44:51;;;;;;;0.60;0.60;;;8.90;52.00;;;;;;5031587;28;20237;-73
2022/04/13 01:47:16;;;;;;;0.60;0.60;;;8.90;39.60;;;;;;5031569;28;20264;-73
2022/04/13 01:49:42;;;;;;;0.70;0.70;;;8.80;51.60;;;;;;5019226;28;20230;-75
2022/04/13 01:52:09;;;;;;;0.70;0.70;;;8.80;33.80;;;;;;5011991;28;20176;-74
2022/04/13 01:54:35;;;;;;;0.70;0.70;;;8.80;28.30;;;;;;5010563;28;20183;-73
2022/04/13 01:57:01;;;;;;;0.60;0.60;;;8.70;31.90;;;;;;5011343;28;20283;-73
2022/04/13 01:59:27;;;;;;;0.60;0.60;;;8.60;31.70;;;;;;5011148;28;20176;-73
2022/04/13 02:01:53;;;;;;;0.70;0.70;;;8.50;24.70;;;;;;5011310;28;20231;-73
2022/04/13 02:04:20;;;;;;;0.70;0.70;;;8.40;72.70;;;;;;5011690;28;20177;-73
2022/04/13 02:06:46;;;;;;;0.70;0.70;;;8.40;81.10;;;;;;5011766;28;20576;-73
2022/04/13 02:09:12;;;;;;;0.70;0.70;;;8.40;99.90;;;;;;5026645;28;20211;-73
2022/04/13 02:11:37;;;;;;;0.70;0.70;;;8.30;99.90;;;;;;5030795;28;20592;-73
2022/04/13 02:14:03;;;;;;;0.60;0.60;;;8.10;99.90;;;;;;5031392;28;20180;-74
2022/04/13 02:16:29;;;;;;;0.57;0.57;;;8.20;99.90;;;;;;5031389;28;20554;-73
2022/04/13 02:18:54;;;;;;;0.80;0.80;;;8.20;99.90;;;;;;5030938;28;20250;-73
2022/04/13 02:21:20;;;;;;;0.70;0.70;;;8.20;99.90;;;;;;5030826;28;20594;-74
2022/04/13 02:23:46;;;;;;;0.70;0.70;;;8.00;99.90;;;;;;5031114;28;20190;-73
2022/04/13 02:26:12;;;;;;;0.70;0.70;;;8.00;99.90;;;;;;5030838;28;20259;-73
2022/04/13 02:28:38;;;;;;;0.70;0.70;;;8.00;99.90;;;;;;5031201;28;20266;-73
2022/04/13 02:31:03;;;;;;;0.70;0.70;;;8.00;99.90;;;;;;5030647;28;20203;-74
2022/04/13 02:33:31;;;;;;;0.60;0.60;;;8.10;99.90;;;;;;5031380;28;20211;-73
2022/04/13 02:35:58;;;;;;;0.60;0.60;;;8.10;99.90;;;;;;5030822;28;20229;-73
2022/04/13 02:38:23;;;;;;;0.70;0.70;;;8.10;99.90;;;;;;5030851;28;20171;-73
2022/04/13 02:40:49;;;;;;;0.70;0.70;;;8.10;97.70;;;;;;5029958;28;20199;-73
2022/04/13 02:43:15;;;;;;;0.70;0.70;;;8.00;81.30;;;;;;5030757;28;20192;-74
2022/04/13 02:45:41;;;;;;;0.70;0.70;;;8.00;63.20;;;;;;5031465;28;20180;-74
2022/04/13 02:48:07;;;;;;;0.63;0.63;;;8.00;79.50;;;;;;5030594;28;20648;-73
2022/04/13 02:50:33;;;;;;;0.60;0.60;;;7.80;61.80;;;;;;5011273;28;20207;-73
2022/04/13 02:52:59;;;;;;;0.70;0.70;;;7.80;89.60;;;;;;5010902;28;20173;-73
2022/04/13 02:55:25;;;;;;;0.70;0.70;;;7.80;74.70;;;;;;5010871;28;20177;-74
2022/04/13 02:57:50;;;;;;;0.70;0.70;;;7.90;55.00;;;;;;5011578;28;20183;-74
2022/04/13 03:00:16;;;;;;;0.60;0.60;;;7.90;68.70;;;;;;5010736;28;20558;-75
2022/04/13 03:02:44;;;;;;;0.80;0.80;;;7.90;69.60;;;;;;5011153;28;20258;-75
2022/04/13 03:05:10;;;;;;;0.77;0.77;;;7.80;58.00;;;;;;5041814;28;20174;-74
2022/04/13 03:07:36;;;;;;;0.70;0.70;;;7.80;90.20;;;;;;5031999;28;20206;-74
2022/04/13 03:10:03;;;;;;;0.80;0.80;;;7.80;99.90;;;;;;5035404;28;20192;-74
2022/04/13 03:12:29;;;;;;;0.70;0.70;;;7.60;99.90;;;;;;5034509;28;20194;-74
2022/04/13 03:14:54;;;;;;;0.70;0.70;;;7.60;99.90;;;;;;5040812;28;20168;-74
2022/04/13 03:17:20;;;;;;;0.70;0.70;;;7.60;99.90;;;;;;5034247;28;20214;-74
2022/04/13 03:19:45;;;;;;;0.60;0.60;;;7.60;99.90;;;;;;5033777;28;20279;-73
2022/04/13 03:22:11;;;;;;;0.70;0.70;;;7.70;99.90;;;;;;5034202;28;20211;-74
2022/04/13 03:24:37;;;;;;;0.70;0.70;;;7.70;99.90;;;;;;5034440;28;20172;-74
2022/04/13 03:27:02;;;;;;;0.70;0.70;;;7.70;99.90;;;;;;5040681;28;20184;-74
2022/04/13 03:29:28;;;;;;;0.70;0.70;;;7.60;99.90;;;;;;5033836;28;20184;-74
2022/04/13 03:31:54;;;;;;;0.70;0.70;;;7.50;99.90;;;;;;5040256;28;20226;-74
2022/04/13 03:34:20;;;;;;;0.70;0.70;;;7.40;99.90;;;;;;5033940;28;20179;-73
2022/04/13 03:36:49;;;;;;;0.70;0.70;;;7.20;99.90;;;;;;5033837;28;20209;-73
2022/04/13 03:39:16;;;;;;;0.70;0.70;;;7.20;99.90;;;;;;5033913;28;20241;-73
2022/04/13 03:41:42;;;;;;;0.67;0.67;;;7.30;99.90;;;;;;5034189;28;20273;-73
2022/04/13 03:44:08;;;;;;;0.70;0.70;;;7.30;99.90;;;;;;5015762;28;20175;-73
2022/04/13 03:46:34;;;;;;;0.77;0.77;;;7.30;99.90;;;;;;5033612;28;20574;-74
2022/04/13 03:48:59;;;;;;;0.70;0.70;;;7.30;99.90;;;;;;5032962;28;20203;-73
2022/04/13 03:51:26;;;;;;;0.80;0.80;;;7.40;99.90;;;;;;5033355;28;20207;-74
2022/04/13 03:53:52;;;;;;;0.70;0.70;;;7.30;99.90;;;;;;5037458;28;20792;-76
2022/04/13 03:56:17;;;;;;;0.70;0.70;;;7.30;99.90;;;;;;5033399;28;20176;-74
2022/04/13 03:58:43;;;;;;;0.73;0.73;;;7.30;99.90;;;;;;5033644;28;20660;-74
2022/04/13 04:01:09;;;;;;;0.73;0.73;;;7.40;99.90;;;;;;5032721;28;20624;-74
2022/04/13 04:03:36;;;;;;;0.70;0.70;;;7.40;99.90;;;;;;5032893;28;20972;-74
2022/04/13 04:06:03;;;;;;;0.70;0.70;;;7.30;99.90;;;;;;5033107;28;20310;-74
2022/04/13 04:08:29;;;;;;;0.70;0.70;;;7.30;99.90;;;;;;5030672;28;20593;-74
2022/04/13 04:10:55;;;;;;;0.70;0.70;;;7.10;99.90;;;;;;5032552;28;20275;-74
2022/04/13 04:13:21;;;;;;;0.70;0.70;;;7.10;99.90;;;;;;5033320;28;20207;-74
2022/04/13 04:15:46;;;;;;;0.70;0.70;;;7.00;99.90;;;;;;5033409;28;20188;-73
2022/04/13 04:18:12;;;;;;;0.70;0.70;;;6.90;99.90;;;;;;5032363;28;20175;-74
2022/04/13 04:20:37;;;;;;;0.70;0.70;;;7.00;99.90;;;;;;5032997;28;20660;-75
2022/04/13 04:23:03;;;;;;;0.70;0.70;;;7.00;99.90;;;;;;5033609;28;20211;-74
2022/04/13 04:25:29;;;;;;;0.70;0.70;;;6.90;99.90;;;;;;5033401;28;20187;-74
2022/04/13 04:27:54;;;;;;;0.70;0.70;;;6.90;99.90;;;;;;5033333;28;20268;-74
2022/04/13 04:30:20;;;;;;;0.70;0.70;;;6.90;99.90;;;;;;5033032;28;20196;-75
2022/04/13 04:32:46;;;;;;;0.70;0.70;;;6.90;99.90;;;;;;5033244;28;20196;-75
2022/04/13 04:35:11;;;;;;;0.80;0.80;;;6.90;99.90;;;;;;5033054;28;20594;-74
2022/04/13 04:37:37;;;;;;;0.70;0.70;;;6.80;99.90;;;;;;5033596;28;20182;-74
2022/04/13 04:40:03;;;;;;;0.60;0.60;;;6.80;99.90;;;;;;5032722;28;20199;-74
2022/04/13 04:42:29;;;;;;;0.70;0.70;;;6.80;99.90;;;;;;5032708;28;20218;-74
2022/04/13 04:44:59;;;;;;;0.60;0.60;;;6.80;99.90;;;;;;5033276;28;20172;-74
2022/04/13 04:47:27;;;;;;;0.60;0.60;;;6.80;99.90;;;;;;5032766;28;20187;-74
2022/04/13 04:49:52;;;;;;;0.70;0.70;;;6.90;99.90;;;;;;5032060;28;20198;-75
2022/04/13 04:52:18;;;;;;;0.67;0.67;;;6.90;99.90;;;;;;5032858;28;20637;-73
2022/04/13 04:54:45;;;;;;;0.67;0.67;;;6.90;99.90;;;;;;5032306;28;20195;-73
2022/04/13 04:57:11;;;;;;;0.70;0.70;;;6.90;99.90;;;;;;5033421;28;20254;-74
2022/04/13 04:59:36;;;;;;;0.77;0.77;;;6.80;99.90;;;;;;5030905;28;20262;-73
2022/04/13 05:02:02;;;;;;;0.60;0.60;;;6.70;99.90;;;;;;5030325;28;20211;-79
2022/04/13 05:04:28;;;;;;;0.70;0.70;;;6.90;99.90;;;;;;5034124;28;20191;-75
2022/04/13 05:06:53;;;;;;;0.70;0.70;;;6.90;99.90;;;;;;5032595;28;20176;-73
2022/04/13 05:09:20;;;;;;;0.60;0.60;;;7.00;99.90;;;;;;5032131;28;20605;-74
2022/04/13 05:11:46;;;;;;;0.70;0.70;;;7.00;99.90;;;;;;5034976;28;20204;-75
2022/04/13 05:14:12;;;;;;;0.50;0.50;;;7.10;99.90;;;;;;5033714;28;20514;-74
2022/04/13 05:16:37;;;;;;;0.63;0.63;;;7.30;99.90;;;;;;5038376;28;20221;-74
2022/04/13 05:19:03;;;;;;;0.80;0.80;;;7.30;99.90;;;;;;5036038;28;20172;-75
2022/04/13 05:21:28;;;;;;;0.60;0.60;;;7.30;99.90;;;;;;5032403;28;20219;-74
2022/04/13 05:23:54;;;;;;;0.60;0.60;;;7.30;99.90;;;;;;5032335;28;20171;-74
2022/04/13 05:26:19;;;;;;;0.60;0.60;;;7.40;99.90;;;;;;5032286;28;20171;-74
2022/04/13 05:28:47;;;;;;;0.60;0.60;;;7.40;99.90;;;;;;5032643;28;20588;-73
2022/04/13 05:31:13;;;;;;;0.70;0.70;;;7.70;99.90;;;;;;5049846;22;20248;-78
2022/04/13 05:33:38;;;;;;;0.80;0.80;;;7.90;86.30;;;;;;5068633;28;20224;-77
2022/04/13 05:36:04;;;;;;;0.63;0.63;;;8.00;32.50;;;;;;5068954;28;20244;-80
2022/04/13 05:38:30;;;;;;;0.60;0.60;;;8.20;13.40;;;;;;5068582;28;20209;-79
2022/04/13 05:40:55;;;;;;;0.70;0.70;;;8.30;1.00;;;;;;5071618;28;20273;-78
2022/04/13 05:43:21;;;;;;;0.60;0.60;;;8.40;1.00;;;;;;5072411;28;20261;-79
2022/04/13 05:45:47;;;;;;;0.80;0.80;;;8.40;1.00;;;;;;5072630;28;20205;-79
2022/04/13 05:48:12;;;;;;;0.60;0.60;;;8.40;1.00;;;;;;5072037;28;20181;-78
2022/04/13 05:50:38;;;;;;;0.60;0.60;;;8.60;1.00;;;;;;5071207;28;20209;-78
2022/04/13 05:53:03;;;;;;;0.70;0.70;;;8.80;1.00;;;;;;5071507;28;20224;-79
2022/04/13 05:55:29;;;;;;;0.60;0.60;;;9.10;1.00;;;;;;5071987;28;20167;-78
2022/04/13 05:57:55;;;;;;;0.70;0.70;;;9.20;11.10;;;;;;5071941;28;20526;-78
2022/04/13 06:00:21;;;;;;;0.60;0.60;;;9.50;1.00;;;;;;5071248;28;20198;-78
2022/04/13 06:02:47;;;;;;;0.70;0.70;;;9.60;1.00;;;;;;5071596;28;20221;-77
2022/04/13 06:05:13;;;;;;;0.60;0.60;;;9.40;1.00;;;;;;5054361;28;20179;-78
2022/04/13 06:07:38;;;;;;;0.80;0.80;;;9.60;1.00;;;;;;5048492;28;20183;-78
2022/04/13 06:10:05;;;;;;;0.60;0.60;;;9.70;1.00;;;;;;5031594;28;20637;-78
2022/04/13 06:12:31;;;;;;;0.60;0.60;;;9.80;1.00;;;;;;5031715;28;20180;-76
2022/04/13 06:15:05;;;;;;;0.50;0.50;;;9.70;1.00;;;;;;5034564;28;20175;-76
2022/04/13 06:17:31;;;;;;;0.60;0.60;;;9.90;1.00;;;;;;5038904;28;20187;-76
2022/04/13 06:19:56;;;;;;;0.60;0.60;;;10.00;1.00;;;;;;5050994;28;20543;-76
2022/04/13 06:22:22;;;;;;;0.40;0.40;;;10.30;1.00;;;;;;5040046;28;20350;-76
2022/04/13 06:24:51;;;;;;;0.60;0.60;;;10.70;1.00;;;;;;5033532;28;20191;-78
2022/04/13 06:27:18;;;;;;;0.60;0.60;;;10.90;1.00;;;;;;5041604;28;20186;-77
2022/04/13 06:29:43;;;;;;;0.50;0.50;;;10.70;1.00;;;;;;5031414;28;20196;-78
2022/04/13 06:32:09;;;;;;;0.60;0.60;;;10.60;1.00;;;;;;5031588;28;20199;-77
2022/04/13 06:34:34;;;;;;;0.50;0.50;;;10.80;1.00;;;;;;5034772;28;20699;-78
2022/04/13 06:37:00;;;;;;;0.60;0.60;;;11.00;1.00;;;;;;5050510;28;20198;-77
2022/04/13 06:39:25;;;;;;;0.50;0.50;;;11.30;1.00;;;;;;5050934;28;20277;-76
2022/04/13 06:41:51;;;;;;;0.60;0.60;;;11.60;1.00;;;;;;5054601;28;20241;-77
2022/04/13 06:44:16;;;;;;;0.60;0.60;;;11.70;99.90;;;;;;5055500;28;20632;-76
2022/04/13 06:46:42;;;;;;;0.50;0.50;;;12.00;99.90;;;;;;5044301;28;20180;-78
2022/04/13 06:49:07;;;;;;;0.50;0.50;;;12.30;61.70;;;;;;5035288;28;20174;-77
2022/04/13 06:51:33;;;;;;;0.33;0.33;;;12.40;1.00;;;;;;5035510;28;20192;-78
2022/04/13 06:53:59;;;;;;;0.50;0.50;;;12.50;99.90;;;;;;5035388;28;20556;-78
2022/04/13 06:56:24;;;;;;;0.40;0.40;;;13.20;99.90;;;;;;5035551;28;20176;-78
2022/04/13 06:58:50;;;;;;;0.53;0.53;;;13.70;1.00;;;;;;5034954;28;20202;-77
2022/04/13 07:01:15;;;;;;;0.60;0.60;;;13.90;95.40;;;;;;5035233;28;20215;-78
2022/04/13 07:03:41;;;;;;;0.50;0.50;;;13.70;99.90;;;;;;5040037;28;20673;-78
2022/04/13 07:06:06;;;;;;;0.40;0.40;;;13.80;1.00;;;;;;5052070;28;20178;-77
2022/04/13 07:08:32;;;;;;;0.40;0.40;;;13.90;99.90;;;;;;5058652;28;20633;-78
2022/04/13 07:10:58;;;;;;;0.30;0.30;;;14.10;1.00;;;;;;5066898;28;20228;-80
2022/04/13 07:13:23;;;;;;;0.40;0.40;;;14.00;1.00;;;;;;5054594;28;20195;-75
2022/04/13 07:15:51;;;;;;;0.50;0.50;;;14.30;1.00;;;;;;5047231;28;20183;-76
2022/04/13 07:18:17;;;;;;;0.40;0.40;;;14.50;99.90;;;;;;5046051;28;20221;-77
2022/04/13 07:20:42;;;;;;;0.37;0.37;;;15.00;99.90;;;;;;5041363;28;20183;-77
2022/04/13 07:23:08;;;;;;;0.50;0.50;;;15.70;1.00;;;;;;5044150;28;20222;-77
2022/04/13 07:25:34;;;;;;;0.40;0.40;;;15.90;57.60;;;;;;5044144;28;20183;-77
2022/04/13 07:27:59;;;;;;;0.40;0.40;;;16.00;47.40;;;;;;5045490;28;20176;-78
2022/04/13 07:30:25;;;;;;;0.37;0.37;;;16.20;20.30;;;;;;5041885;28;20191;-76
2022/04/13 07:33:01;;;;;;;0.40;0.40;;;16.30;19.70;;;;;;5043884;28;20586;-76
2022/04/13 07:35:31;;;;;;;0.30;0.30;;;16.40;1.00;;;;;;5042913;28;20689;-76
2022/04/13 07:37:57;;;;;;;0.40;0.40;;;16.80;1.00;;;;;;5043538;28;20229;-77
2022/04/13 07:40:23;;;;;;;0.30;0.30;;;17.00;1.00;;;;;;5023627;28;20284;-77
2022/04/13 07:42:48;;;;;;;0.30;0.30;;;17.60;1.00;;;;;;5046235;28;20683;-77
2022/04/13 07:45:14;;;;;;;0.30;0.30;;;17.50;1.00;;;;;;5048734;28;20175;-80
2022/04/13 07:47:40;;;;;;;0.50;0.50;;;17.60;1.00;;;;;;5047341;28;20171;-77
2022/04/13 07:50:07;;;;;;;0.30;0.30;;;18.00;1.00;;;;;;5042294;28;20219;-76
2022/04/13 07:52:34;;;;;;;0.33;0.33;;;18.00;1.00;;;;;;5043601;28;20193;-79
2022/04/13 07:55:00;;;;;;;0.30;0.30;;;18.30;1.00;;;;;;5044034;28;20179;-77
2022/04/13 07:57:26;;;;;;;0.30;0.30;;;18.20;1.00;;;;;;5042164;28;20266;-77
2022/04/13 07:59:52;;;;;;;0.40;0.40;;;18.80;1.00;;;;;;5044501;28;20262;-79
2022/04/13 08:02:21;;;;;;;0.30;0.30;;;18.70;1.00;;;;;;5044282;28;20323;-77
2022/04/13 08:04:46;;;;;;;0.30;0.30;;;19.20;1.00;;;;;;5041434;28;20186;-77
2022/04/13 08:07:12;;;;;;;0.37;0.37;;;19.40;1.00;;;;;;5050081;28;20625;-77
2022/04/13 08:09:39;;;;;;;0.30;0.30;;;19.40;1.00;;;;;;5052963;28;20636;-78
2022/04/13 08:12:04;;;;;;;0.30;0.30;;;19.50;1.00;;;;;;5053233;28;20215;-78
2022/04/13 08:14:30;;;;;;;0.40;0.40;;;19.50;1.00;;;;;;5053134;28;20209;-77
2022/04/13 08:16:56;;;;;;;0.30;0.30;;;19.40;1.00;;;;;;5054657;28;20647;-77
2022/04/13 08:19:23;;;;;;;0.40;0.40;;;19.70;1.00;;;;;;5048389;28;20191;-76
2022/04/13 08:21:48;;;;;;;0.40;0.40;;;19.50;1.00;;;;;;5060334;28;20558;-77
2022/04/13 08:24:17;;;;;;;0.50;0.50;;;19.70;1.00;;;;;;5052304;28;20665;-79
2022/04/13 08:26:44;;;;;;;0.30;0.30;;;19.80;1.00;;;;;;5051064;28;20234;-79
2022/04/13 08:29:09;;;;;;;0.30;0.30;;;20.30;1.00;;;;;;5041635;28;20551;-77
2022/04/13 08:31:35;;;;;;;0.40;0.40;;;20.30;1.00;;;;;;5046189;28;20264;-77
2022/04/13 08:34:00;;;;;;;0.40;0.40;;;20.40;1.00;;;;;;5042732;28;20175;-77
2022/04/13 08:36:26;;;;;;;0.30;0.30;;;20.60;1.00;;;;;;5043025;28;20237;-77
2022/04/13 08:38:51;;;;;;;0.30;0.30;;;20.90;1.00;;;;;;5041968;28;20235;-78
2022/04/13 08:41:29;;;;;;;0.40;0.40;;;20.90;1.00;;;;;;5042148;28;20196;-76
2022/04/13 08:44:02;;;;;;;0.33;0.33;;;20.90;1.00;;;;;;5042168;28;20262;-77
2022/04/13 08:46:28;;;;;;;0.33;0.33;;;20.60;1.00;;;;;;5042544;28;20203;-77
2022/04/13 08:48:56;;;;;;;0.40;0.40;;;21.10;1.00;;;;;;5041764;28;20663;-81
2022/04/13 08:51:23;;;;;;;0.33;0.33;;;21.00;1.00;;;;;;5042373;28;20199;-78
2022/04/13 08:54:10;;;;;;;0.40;0.40;;;21.00;1.00;;;;;;5024485;28;20213;-79
2022/04/13 08:56:38;;;;;;;0.40;0.40;;;21.20;1.00;;;;;;5047643;28;20179;-79
2022/04/13 08:59:12;;;;;;;0.33;0.33;;;21.70;1.00;;;;;;5040204;28;20186;-80
2022/04/13 09:01:40;;;;;;;0.30;0.30;;;21.90;1.00;;;;;;5044192;28;20239;-79
2022/04/13 09:04:10;;;;;;;0.47;0.47;;;22.00;1.00;;;;;;5041493;28;20318;-79
2022/04/13 09:06:37;;;;;;;0.40;0.40;;;22.20;1.00;;;;;;5041176;28;20188;-79
2022/04/13 09:09:08;;;;;;;0.50;0.50;;;22.40;1.00;;;;;;5040536;28;20209;-78
2022/04/13 09:11:38;;;;;;;0.60;0.60;;;22.10;1.00;;;;;;5044009;28;20260;-78
2022/04/13 09:14:04;;;;;;;0.50;0.50;;;22.10;1.00;;;;;;5040978;28;20183;-78
2022/04/13 09:16:31;;;;;;;0.50;0.50;;;22.10;1.00;;;;;;5041161;28;20214;-77
2022/04/13 09:18:57;;;;;;;0.40;0.40;;;22.10;1.00;;;;;;5042970;28;20237;-77
2022/04/13 09:21:25;;;;;;;0.50;0.50;;;22.20;1.00;;;;;;5041358;28;20614;-80
2022/04/13 09:23:51;;;;;;;0.50;0.50;;;22.10;1.00;;;;;;5046682;28;20233;-79
2022/04/13 09:26:18;;;;;;;0.40;0.40;;;22.20;1.00;;;;;;5053674;28;20178;-80
2022/04/13 09:28:43;;;;;;;0.50;0.50;;;22.80;1.00;;;;;;5053651;28;20284;-78
2022/04/13 09:31:09;;;;;;;0.43;0.43;;;23.10;1.00;;;;;;5052549;28;20238;-76
2022/04/13 09:33:35;;;;;;;0.60;0.60;;;23.30;1.00;;;;;;5054524;28;20179;-77
2022/04/13 09:36:00;;;;;;;0.40;0.40;;;23.80;1.00;;;;;;5046692;28;20222;-78
2022/04/13 09:38:27;;;;;;;0.53;0.53;;;23.70;1.00;;;;;;5060582;28;20183;-78
2022/04/13 09:40:52;;;;;;;0.50;0.50;;;23.50;1.00;;;;;;5040367;28;20212;-77
2022/04/13 09:43:22;;;;;;;0.57;0.57;;;23.30;1.00;;;;;;5046048;28;20238;-78
2022/04/13 09:45:50;;;;;;;0.53;0.53;;;23.70;1.00;;;;;;5050577;28;20180;-79
2022/04/13 09:48:22;;;;;;;0.50;0.50;;;23.40;1.00;;;;;;5054584;28;20201;-78
2022/04/13 09:50:50;;;;;;;0.40;0.40;;;23.20;1.00;;;;;;5072822;28;20201;-79
2022/04/13 09:53:20;;;;;;;0.40;0.40;;;23.70;1.00;;;;;;5076406;28;20854;-77
2022/04/13 09:55:54;;;;;;;0.60;0.60;;;24.00;1.00;;;;;;5055201;28;20175;-78
2022/04/13 09:58:25;;;;;;;0.50;0.50;;;24.80;1.00;;;;;;5053599;28;20242;-77
2022/04/13 10:00:54;;;;;;;0.43;0.43;;;24.60;1.00;;;;;;5076964;28;20170;-78
2022/04/13 10:03:22;;;;;;;0.40;0.40;;;24.70;1.00;;;;;;5085349;28;20229;-76
2022/04/13 10:05:53;;;;;;;0.50;0.50;;;24.40;1.00;;;;;;5084828;28;20201;-77
2022/04/13 10:08:24;;;;;;;0.60;0.60;;;25.00;1.00;;;;;;5051894;28;20195;-78
2022/04/13 10:10:52;;;;;;;0.47;0.47;;;25.30;1.00;;;;;;5033829;28;20219;-77
2022/04/13 10:13:38;;;;;;;0.63;0.63;;;25.10;1.00;;;;;;5032936;28;20893;-77
2022/04/13 10:16:07;;;;;;;0.60;0.60;;;25.00;1.00;;;;;;5032214;28;20176;-78
2022/04/13 10:19:05;;;;;;;0.50;0.50;;;25.20;1.00;;;;;;5038532;28;20188;-78
2022/04/13 10:21:48;;;;;;;0.57;0.57;;;24.90;1.00;;;;;;5013441;28;20230;-80
2022/04/13 10:24:28;;;;;;;0.60;0.60;;;24.80;1.00;;;;;;5043267;28;20167;-78
2022/04/13 10:27:24;;;;;;;0.60;0.60;;;25.20;1.00;;;;;;5040741;28;20221;-77
2022/04/13 10:29:50;;;;;;;0.53;0.53;;;25.50;1.00;;;;;;5040493;28;20184;-82
2022/04/13 10:32:18;;;;;;;0.67;0.67;;;25.80;1.00;;;;;;5059517;28;20221;-82
2022/04/13 10:34:46;;;;;;;0.60;0.60;;;25.80;1.00;;;;;;5067673;28;20186;-81
2022/04/13 10:37:14;;;;;;;0.60;0.60;;;26.20;1.00;;;;;;5077793;28;20178;-78
2022/04/13 10:39:41;;;;;;;0.60;0.60;;;25.90;1.00;;;;;;5078313;28;20195;-80
2022/04/13 10:42:09;;;;;;;0.70;0.70;;;26.00;1.00;;;;;;5081071;28;20200;-79
2022/04/13 10:44:37;;;;;;;0.67;0.67;;;26.20;1.00;;;;;;5077107;28;20257;-83
2022/04/13 10:47:06;;;;;;;0.53;0.53;;;26.10;1.00;;;;;;5075916;28;20210;-82
2022/04/13 10:49:56;;;;;;;0.60;0.60;;;26.10;1.00;;;;;;5077817;28;20182;-83
2022/04/13 10:52:39;;;;;;;0.70;0.70;;;26.40;1.00;;;;;;5075951;28;20635;-80
2022/04/13 10:55:10;;;;;;;0.60;0.60;;;26.50;1.00;;;;;;5090131;28;20189;-84
2022/04/13 10:58:14;;;;;;;0.60;0.60;;;26.60;1.00;;;;;;5089490;28;20203;-83
2022/04/13 11:00:44;;;;;;;0.63;0.63;;;26.80;1.00;;;;;;5079227;28;20195;-82
2022/04/13 11:03:11;;;;;;;0.50;0.50;;;26.50;1.00;;;;;;5052500;28;20211;-82
2022/04/13 11:05:40;;;;;;;0.50;0.50;;;26.60;1.00;;;;;;5042171;28;20179;-80
2022/04/13 11:08:21;;;;;;;0.60;0.60;;;26.80;1.00;;;;;;5044393;28;20665;-81
2022/04/13 11:10:48;;;;;;;0.60;0.60;;;27.10;1.00;;;;;;5045444;28;20195;-80
2022/04/13 11:13:17;;;;;;;0.50;0.50;;;26.70;1.00;;;;;;5054806;28;20187;-77
2022/04/13 11:15:50;;;;;;;0.70;0.70;;;26.70;1.00;;;;;;5057353;28;20178;-78
2022/04/13 11:18:20;;;;;;;0.70;0.70;;;26.90;1.00;;;;;;5039475;28;20184;-78
2022/04/13 11:21:12;;;;;;;0.40;0.40;;;27.00;1.00;;;;;;5039710;28;20223;-78
2022/04/13 11:23:44;;;;;;;0.50;0.50;;;27.10;1.00;;;;;;5055784;28;20209;-79
2022/04/13 11:26:10;;;;;;;0.50;0.50;;;27.30;1.00;;;;;;5079511;28;20183;-78
2022/04/13 11:28:36;;;;;;;0.50;0.50;;;27.40;1.00;;;;;;5083365;28;20174;-78
2022/04/13 11:31:07;;;;;;;0.67;0.67;;;27.30;1.00;;;;;;5080025;28;20209;-79
2022/04/13 11:33:50;;;;;;;0.40;0.40;;;27.20;1.00;;;;;;5078961;28;20186;-80
2022/04/13 11:36:17;;;;;;;0.50;0.50;;;27.30;1.00;;;;;;5079307;28;20634;-83
2022/04/13 11:38:51;;;;;;;0.50;0.50;;;27.20;1.00;;;;;;5081624;28;20166;-80
2022/04/13 11:41:17;;;;;;;0.50;0.50;;;27.20;1.00;;;;;;5052528;28;20285;-82
2022/04/13 11:43:43;;;;;;;0.50;0.50;;;27.10;1.00;;;;;;5052490;28;20176;-82
2022/04/13 11:46:36;;;;;;;0.50;0.50;;;26.70;1.00;;;;;;5069377;28;20171;-80
2022/04/13 11:49:03;;;;;;;0.50;0.50;;;27.40;1.00;;;;;;5051768;28;20176;-81
2022/04/13 11:51:30;;;;;;;0.50;0.50;;;27.30;1.00;;;;;;5041543;28;20195;-82
2022/04/13 11:54:08;;;;;;;0.40;0.40;;;27.50;1.00;;;;;;5055152;28;20210;-81
2022/04/13 11:56:36;;;;;;;0.50;0.50;;;27.30;1.00;;;;;;5040047;28;20187;-79
2022/04/13 11:59:02;;;;;;;0.50;0.50;;;26.90;1.00;;;;;;5039000;28;20179;-80
2022/04/13 12:01:28;;;;;;;0.37;0.37;;;26.70;1.00;;;;;;5037662;28;20222;-81
2022/04/13 12:03:56;;;;;;;0.50;0.50;;;26.70;1.00;;;;;;5049441;28;20172;-79
2022/04/13 12:06:24;;;;;;;0.40;0.40;;;26.90;1.00;;;;;;5045809;28;20184;-80
2022/04/13 12:08:58;;;;;;;0.40;0.40;;;27.00;1.00;;;;;;5059557;28;20174;-79
2022/04/13 12:11:41;;;;;;;0.40;0.40;;;27.00;1.00;;;;;;5066237;28;20692;-79
2022/04/13 12:14:08;;;;;;;0.60;0.60;;;27.00;1.00;;;;;;5045333;28;20180;-79
2022/04/13 12:16:38;;;;;;;0.37;0.37;;;27.50;1.00;;;;;;5068996;28;20210;-79
2022/04/13 12:19:11;;;;;;;0.60;0.60;;;27.30;1.00;;;;;;5078690;28;20182;-78
2022/04/13 12:21:39;;;;;;;0.50;0.50;;;26.90;1.00;;;;;;5055014;28;20211;-79
2022/04/13 12:24:07;;;;;;;0.60;0.60;;;26.70;1.00;;;;;;5064419;28;20208;-81
2022/04/13 12:26:35;;;;;;;0.53;0.53;;;26.90;1.00;;;;;;5062656;28;20213;-83
2022/04/13 12:29:10;;;;;;;0.60;0.60;;;26.90;1.00;;;;;;5058659;28;20415;-79
2022/04/13 12:31:46;;;;;;;0.50;0.50;;;26.80;1.00;;;;;;5044478;28;20192;-81
2022/04/13 12:34:22;;;;;;;0.50;0.50;;;27.10;1.00;;;;;;5051749;28;20670;-80
2022/04/13 12:36:59;;;;;;;0.50;0.50;;;26.90;1.00;;;;;;5076610;28;20174;-84
2022/04/13 12:39:26;;;;;;;0.60;0.60;;;26.90;1.00;;;;;;5039807;28;20244;-81
2022/04/13 12:41:51;;;;;;;0.40;0.40;;;26.80;1.00;;;;;;5053700;28;20221;-81
2022/04/13 12:44:17;;;;;;;0.60;0.60;;;26.60;1.00;;;;;;5038886;28;20735;-80
2022/04/13 12:46:43;;;;;;;0.50;0.50;;;26.70;1.00;;;;;;5038362;28;20279;-82
2022/04/13 12:49:18;;;;;;;0.50;0.50;;;26.80;1.00;;;;;;5053381;28;20663;-82
2022/04/13 12:51:43;;;;;;;0.50;0.50;;;26.60;1.00;;;;;;5052031;28;20221;-79
2022/04/13 12:54:13;;;;;;;0.50;0.50;;;26.90;1.00;;;;;;5037294;28;20579;-78
2022/04/13 12:56:45;;;;;;;0.40;0.40;;;27.10;1.00;;;;;;5039974;28;20188;-77
2022/04/13 12:59:20;;;;;;;0.40;0.40;;;27.10;1.00;;;;;;5058165;28;20692;-79
2022/04/13 13:01:50;;;;;;;0.47;0.47;;;27.00;1.00;;;;;;5035179;28;20219;-80